Skip to main content

Mirandela

ID 1210632 · 41.5148, -7.1908 map

Latest reading · 2026-05-09 19:00 (Europe/Lisbon)

Temperature
12.9 °C
Humidity
88 %
Pressure
Precipitation
3.7 mm
Radiation
42 W/m²
Wind speed
11.2 km/h
Wind direction
SE · South-east

24-hour history

Time (Europe/Lisbon) Temp Humidity Pressure Rain Wind Dir
2026-05-09 19:00 12.9 °C 88 % 3.7 mm 11.2 km/h SE
2026-05-09 18:00 15.3 °C 69 % 0.8 mm 10.4 km/h S
2026-05-09 17:00 16.1 °C 68 % 0.0 mm 17.3 km/h S
2026-05-09 16:00 14.1 °C 75 % 1.1 mm 13.0 km/h SE
2026-05-09 15:00 14.7 °C 80 % 0.9 mm 14.0 km/h SE
2026-05-09 14:00 15.7 °C 71 % 0.1 mm 19.4 km/h SE
2026-05-09 13:00 14.6 °C 76 % 0.2 mm 6.5 km/h S
2026-05-09 12:00 14.3 °C 78 % 0.5 mm 20.2 km/h S
2026-05-09 11:00 15.2 °C 66 % 0.5 mm 8.3 km/h S
2026-05-09 10:00 15.6 °C 61 % 0.0 mm 6.8 km/h E
2026-05-09 09:00 15.6 °C 60 % 0.0 mm 11.2 km/h SE
2026-05-09 08:00 13.2 °C 75 % 0.0 mm 7.2 km/h S
2026-05-09 07:00 11.9 °C 80 % 0.0 mm 5.8 km/h SE
2026-05-09 06:00 12.2 °C 85 % 0.0 mm 4.0 km/h SE
2026-05-09 05:00 11.7 °C 90 % 0.0 mm 2.5 km/h SE
2026-05-09 04:00 11.7 °C 87 % 0.0 mm 1.1 km/h SW
2026-05-09 03:00 12.1 °C 83 % 0.0 mm 2.5 km/h S
2026-05-09 02:00 13.2 °C 74 % 0.0 mm 6.5 km/h S
2026-05-09 01:00 12.6 °C 79 % 0.0 mm 2.9 km/h E
2026-05-09 00:00 11.6 °C 88 % 0.0 mm 6.8 km/h N
2026-05-08 23:00 11.9 °C 88 % 0.0 mm 2.2 km/h NW
2026-05-08 22:00 12.9 °C 83 % 0.0 mm 1.8 km/h E
2026-05-08 21:00 14.5 °C 75 % 0.0 mm 6.8 km/h N
2026-05-08 20:00 16.4 °C 68 % 0.0 mm 5.4 km/h N